createdAt,value
2024-03-09T00:00:32.174Z,96209.00
2024-03-09T00:03:03.335Z,96209.00
2024-03-09T00:05:30.778Z,96205.00
2024-03-09T00:08:02.944Z,96200.00
2024-03-09T00:10:31.082Z,96204.00
2024-03-09T00:12:59.237Z,96198.00
2024-03-09T00:15:27.705Z,96200.00
2024-03-09T00:17:57.186Z,96203.00
2024-03-09T00:20:29.205Z,96202.00
2024-03-09T00:22:59.543Z,96199.00
2024-03-09T00:25:30.313Z,96197.00
2024-03-09T00:27:58.694Z,96189.00
2024-03-09T00:30:31.010Z,96189.00
2024-03-09T00:33:06.947Z,96189.00
2024-03-09T00:35:35.159Z,96178.00
2024-03-09T00:38:02.715Z,96184.00
2024-03-09T00:40:30.074Z,96176.00
2024-03-09T00:43:07.246Z,96175.00
2024-03-09T00:45:34.475Z,96187.00
2024-03-09T00:48:01.447Z,96168.00
2024-03-09T00:50:29.040Z,96173.00
2024-03-09T00:52:56.785Z,96172.00
2024-03-09T00:55:24.451Z,96158.00
2024-03-09T00:57:52.569Z,96163.00
2024-03-09T01:00:21.128Z,96140.00
2024-03-09T01:02:51.897Z,96157.00
2024-03-09T01:05:24.650Z,96166.00
2024-03-09T01:07:52.958Z,96143.00
2024-03-09T01:10:20.221Z,96143.00
2024-03-09T01:12:48.780Z,96150.00
2024-03-09T01:15:16.081Z,96156.00
2024-03-09T01:17:43.318Z,96143.00
2024-03-09T01:20:11.354Z,96141.00
2024-03-09T01:22:44.585Z,96145.00
2024-03-09T01:25:12.444Z,96141.00
2024-03-09T01:27:39.659Z,96134.00
2024-03-09T01:30:07.529Z,96142.00
2024-03-09T01:32:34.688Z,96139.00
2024-03-09T01:35:03.039Z,96132.00
2024-03-09T01:37:30.341Z,96146.00
2024-03-09T01:39:57.743Z,96137.00
2024-03-09T01:42:24.602Z,96151.00
2024-03-09T01:44:52.463Z,96134.00
2024-03-09T01:47:23.455Z,96133.00
2024-03-09T01:49:52.697Z,96127.00
2024-03-09T01:52:23.502Z,96125.00
2024-03-09T01:54:52.599Z,96134.00
2024-03-09T01:57:20.846Z,96146.00
2024-03-09T01:59:51.403Z,96146.00
2024-03-09T02:02:18.346Z,96136.00
2024-03-09T02:04:46.035Z,96125.00
2024-03-09T02:07:17.905Z,96125.00
2024-03-09T02:09:47.405Z,96114.00
2024-03-09T02:12:18.228Z,96106.00
2024-03-09T02:14:46.021Z,96109.00
2024-03-09T02:17:13.823Z,96099.00
2024-03-09T02:19:42.126Z,96097.00
2024-03-09T02:22:17.321Z,96102.00
2024-03-09T02:24:57.559Z,96095.00
2024-03-09T02:27:27.183Z,96101.00
2024-03-09T02:29:54.667Z,96100.00
2024-03-09T02:32:23.021Z,96093.00
2024-03-09T02:34:50.208Z,96087.00
2024-03-09T02:37:20.841Z,96084.00
2024-03-09T02:39:48.133Z,96082.00
2024-03-09T02:42:15.480Z,96083.00
2024-03-09T02:44:43.212Z,96081.00
2024-03-09T02:47:11.424Z,96088.00
2024-03-09T02:49:38.891Z,96084.00
2024-03-09T02:52:06.045Z,96081.00
2024-03-09T02:54:32.955Z,96079.00
2024-03-09T02:56:59.833Z,96073.00
2024-03-09T02:59:28.081Z,96069.00
2024-03-09T03:01:56.073Z,96078.00
2024-03-09T03:04:23.087Z,96079.00
2024-03-09T03:06:49.953Z,96055.00
2024-03-09T03:09:20.696Z,96060.00
2024-03-09T03:11:47.651Z,96066.00
2024-03-09T03:14:16.417Z,96052.00
2024-03-09T03:16:43.415Z,96067.00
2024-03-09T03:19:11.112Z,96073.00
2024-03-09T03:21:42.273Z,96059.00
2024-03-09T03:24:10.592Z,96056.00
2024-03-09T03:26:37.942Z,96055.00
2024-03-09T03:29:05.147Z,96058.00
2024-03-09T03:31:32.252Z,96061.00
2024-03-09T03:33:59.555Z,96052.00
2024-03-09T03:36:27.622Z,96050.00
2024-03-09T03:38:55.534Z,96065.00
2024-03-09T03:41:28.062Z,96058.00
2024-03-09T03:43:56.069Z,96052.00
2024-03-09T03:46:23.130Z,96058.00
2024-03-09T03:48:50.204Z,96066.00
2024-03-09T03:51:17.841Z,96062.00
2024-03-09T03:53:46.274Z,96061.00
2024-03-09T03:56:14.659Z,96057.00
2024-03-09T03:58:48.461Z,96061.00
2024-03-09T04:01:15.493Z,96046.00
2024-03-09T04:03:42.588Z,96048.00
2024-03-09T04:06:10.234Z,96057.00
2024-03-09T04:08:37.120Z,96065.00
2024-03-09T04:11:05.307Z,96053.00
2024-03-09T04:13:33.573Z,96015.00
2024-03-09T04:16:03.653Z,96038.00
2024-03-09T04:18:31.679Z,96049.00
2024-03-09T04:20:59.272Z,96038.00
2024-03-09T04:23:26.226Z,96037.00
2024-03-09T04:25:54.473Z,96040.00
2024-03-09T04:28:22.668Z,96037.00
2024-03-09T04:30:51.767Z,96044.00
2024-03-09T04:33:22.818Z,96045.00
2024-03-09T04:35:49.822Z,96050.00
2024-03-09T04:38:18.039Z,96033.00
2024-03-09T04:40:50.433Z,96042.00
2024-03-09T04:43:18.318Z,96052.00
2024-03-09T04:45:47.219Z,96043.00
2024-03-09T04:48:17.697Z,96038.00
2024-03-09T04:50:48.978Z,96041.00
2024-03-09T04:53:18.347Z,96051.00
2024-03-09T04:55:50.378Z,96059.00
2024-03-09T04:58:19.496Z,96060.00
2024-03-09T05:00:47.270Z,96060.00
2024-03-09T05:03:15.692Z,96056.00
2024-03-09T05:05:43.878Z,96046.00
2024-03-09T05:08:11.123Z,96039.00
2024-03-09T05:10:38.432Z,96031.00
2024-03-09T05:13:07.680Z,96039.00
2024-03-09T05:15:34.849Z,96040.00
2024-03-09T05:18:04.595Z,96029.00
2024-03-09T05:20:31.748Z,96031.00
2024-03-09T05:23:11.758Z,96021.00
2024-03-09T05:25:42.165Z,96015.00
2024-03-09T05:28:13.493Z,96011.00
2024-03-09T05:30:42.409Z,96001.00
2024-03-09T05:33:09.545Z,95994.00
2024-03-09T05:35:36.735Z,96002.00
2024-03-09T05:38:09.247Z,96017.00
2024-03-09T05:40:37.206Z,96003.00
2024-03-09T05:43:12.992Z,96004.00
2024-03-09T05:45:41.093Z,95998.00
2024-03-09T05:48:09.716Z,96002.00
2024-03-09T05:50:38.933Z,95995.00
2024-03-09T05:53:06.740Z,96005.00
2024-03-09T05:55:34.438Z,95999.00
2024-03-09T05:58:01.691Z,95999.00
2024-03-09T06:00:31.436Z,96003.00
2024-03-09T06:03:05.090Z,96002.00
2024-03-09T06:05:32.986Z,95995.00
2024-03-09T06:08:02.368Z,95988.00
2024-03-09T06:10:30.059Z,95992.00
2024-03-09T06:12:57.029Z,95997.00
2024-03-09T06:15:25.549Z,95995.00
2024-03-09T06:17:57.122Z,96001.00
2024-03-09T06:20:28.060Z,96009.00
2024-03-09T06:22:57.064Z,96023.00
2024-03-09T06:25:25.390Z,96006.00
2024-03-09T06:27:54.948Z,96001.00
2024-03-09T06:30:28.090Z,96013.00
2024-03-09T06:32:59.848Z,96018.00
2024-03-09T06:35:27.339Z,96034.00
2024-03-09T06:38:01.945Z,96026.00
2024-03-09T06:40:32.360Z,96032.00
2024-03-09T06:43:04.550Z,96027.00
2024-03-09T06:45:31.636Z,96039.00
2024-03-09T06:47:59.317Z,96028.00
2024-03-09T06:50:32.667Z,96025.00
2024-03-09T06:53:00.573Z,96029.00
2024-03-09T06:55:30.535Z,96034.00
2024-03-09T06:58:05.931Z,96035.00
2024-03-09T07:00:38.434Z,96026.00
2024-03-09T07:03:06.948Z,96030.00
2024-03-09T07:05:38.653Z,96029.00
2024-03-09T07:08:08.430Z,96030.00
2024-03-09T07:10:37.162Z,96026.00
2024-03-09T07:13:05.860Z,96020.00
2024-03-09T07:15:32.910Z,96026.00
2024-03-09T07:17:59.902Z,96033.00
2024-03-09T07:20:29.788Z,96028.00
2024-03-09T07:22:57.592Z,96029.00
2024-03-09T07:25:28.710Z,96031.00
2024-03-09T07:27:58.171Z,96030.00
2024-03-09T07:30:26.264Z,96027.00
2024-03-09T07:32:55.865Z,96030.00
2024-03-09T07:35:29.024Z,96027.00
2024-03-09T07:37:59.681Z,96033.00
2024-03-09T07:40:27.533Z,96029.00
2024-03-09T07:42:55.143Z,96032.00
2024-03-09T07:45:24.403Z,96028.00
2024-03-09T07:47:52.267Z,96035.00
2024-03-09T07:50:23.055Z,96042.00
2024-03-09T07:52:54.391Z,96034.00
2024-03-09T07:55:27.043Z,96037.00
2024-03-09T07:58:05.254Z,96034.00
2024-03-09T08:00:41.095Z,96028.00
2024-03-09T08:03:08.136Z,96037.00
2024-03-09T08:05:35.065Z,96037.00
2024-03-09T08:08:06.137Z,96033.00
2024-03-09T08:10:33.594Z,96037.00
2024-03-09T08:13:01.103Z,96034.00
2024-03-09T08:15:31.140Z,96030.00
2024-03-09T08:17:58.252Z,96018.00
2024-03-09T08:20:25.571Z,96027.00
2024-03-09T08:22:52.635Z,96021.00
2024-03-09T08:25:20.114Z,96011.00
2024-03-09T08:27:48.789Z,96009.00
2024-03-09T08:30:19.229Z,96014.00
2024-03-09T08:32:48.727Z,96014.00
2024-03-09T08:35:20.626Z,96019.00
2024-03-09T08:37:49.316Z,96020.00
2024-03-09T08:40:19.384Z,96015.00
2024-03-09T08:42:54.085Z,96006.00
2024-03-09T08:45:25.587Z,96013.00
2024-03-09T08:47:54.300Z,96014.00
2024-03-09T08:50:23.384Z,96016.00
2024-03-09T08:52:50.980Z,96018.00
2024-03-09T08:55:19.734Z,96024.00
2024-03-09T08:57:50.583Z,96020.00
2024-03-09T09:00:20.741Z,96019.00
2024-03-09T09:02:48.171Z,96012.00
2024-03-09T09:05:15.995Z,96007.00
2024-03-09T09:07:45.956Z,96009.00
2024-03-09T09:10:13.139Z,96012.00
2024-03-09T09:12:45.299Z,96014.00
2024-03-09T09:15:14.062Z,96016.00
2024-03-09T09:17:44.128Z,96011.00
2024-03-09T09:20:12.972Z,95993.00
2024-03-09T09:22:41.114Z,95991.00
2024-03-09T09:25:10.330Z,95992.00
2024-03-09T09:27:39.192Z,95990.00
2024-03-09T09:30:07.284Z,95993.00
2024-03-09T09:32:34.220Z,95985.00
2024-03-09T09:35:04.114Z,95994.00
2024-03-09T09:37:31.213Z,95981.00
2024-03-09T09:39:58.221Z,95989.00
2024-03-09T09:42:33.505Z,95978.00
2024-03-09T09:45:01.263Z,95977.00
2024-03-09T09:47:31.702Z,95971.00
2024-03-09T09:49:59.043Z,95970.00
2024-03-09T09:52:26.470Z,95971.00
2024-03-09T09:54:57.998Z,95974.00
2024-03-09T09:57:28.109Z,95965.00
2024-03-09T09:59:54.929Z,95976.00
2024-03-09T10:02:23.259Z,95976.00
2024-03-09T10:04:53.402Z,95974.00
2024-03-09T10:07:21.275Z,95982.00
2024-03-09T10:09:50.922Z,95975.00
2024-03-09T10:12:25.112Z,95976.00
2024-03-09T10:14:53.469Z,95985.00
2024-03-09T10:17:21.491Z,95973.00
2024-03-09T10:19:52.856Z,95977.00
2024-03-09T10:22:20.397Z,95967.00
2024-03-09T10:24:55.182Z,95970.00
2024-03-09T10:27:27.285Z,95965.00
2024-03-09T10:30:16.697Z,95970.00
2024-03-09T10:32:43.982Z,95958.00
2024-03-09T10:35:12.567Z,95951.00
2024-03-09T10:41:46.568Z,95943.00
2024-03-09T10:44:13.501Z,95950.00
2024-03-09T10:46:43.690Z,95952.00
2024-03-09T10:49:12.853Z,95947.00
2024-03-09T10:51:51.324Z,95947.00
2024-03-09T10:55:00.410Z,95942.00
2024-03-09T10:57:30.398Z,95943.00
2024-03-09T11:00:00.356Z,95934.00
2024-03-09T11:02:27.891Z,95943.00
2024-03-09T11:04:56.945Z,95927.00
2024-03-09T11:07:24.500Z,95929.00
2024-03-09T11:09:53.083Z,95929.00
2024-03-09T11:12:22.300Z,95922.00
2024-03-09T11:14:53.741Z,95923.00
2024-03-09T11:17:24.962Z,95922.00
2024-03-09T11:19:57.366Z,95916.00
2024-03-09T11:22:47.023Z,95911.00
2024-03-09T11:25:15.204Z,95902.00
2024-03-09T11:27:46.282Z,95907.00
2024-03-09T11:30:16.182Z,95908.00
2024-03-09T11:32:43.282Z,95903.00
2024-03-09T11:35:33.455Z,95904.00
2024-03-09T11:38:18.145Z,95885.00
2024-03-09T11:40:47.844Z,95887.00
2024-03-09T11:43:15.821Z,95896.00
2024-03-09T11:45:46.015Z,95885.00
2024-03-09T11:48:12.914Z,95879.00
2024-03-09T11:50:41.522Z,95876.00
2024-03-09T11:53:11.984Z,95878.00
2024-03-09T11:55:42.931Z,95877.00
2024-03-09T11:58:09.980Z,95881.00
2024-03-09T12:00:37.039Z,95872.00
2024-03-09T12:03:16.740Z,95879.00
2024-03-09T12:05:44.405Z,95868.00
2024-03-09T12:08:12.271Z,95867.00
2024-03-09T12:10:39.850Z,95863.00
2024-03-09T12:13:07.470Z,95867.00
2024-03-09T12:15:40.175Z,95861.00
2024-03-09T12:18:13.019Z,95870.00
2024-03-09T12:20:40.391Z,95861.00
2024-03-09T12:23:18.590Z,95866.00
2024-03-09T12:25:47.349Z,95849.00
2024-03-09T12:28:17.924Z,95848.00
2024-03-09T12:30:51.712Z,95851.00
2024-03-09T12:33:18.716Z,95847.00
2024-03-09T12:35:47.263Z,95847.00
2024-03-09T12:38:16.323Z,95844.00
2024-03-09T12:40:46.385Z,95847.00
2024-03-09T12:43:16.015Z,95834.00
2024-03-09T12:45:49.155Z,95849.00
2024-03-09T12:48:17.518Z,95842.00
2024-03-09T12:50:44.428Z,95835.00
2024-03-09T12:53:11.279Z,95834.00
2024-03-09T12:55:43.014Z,95834.00
2024-03-09T12:58:12.698Z,95829.00
2024-03-09T13:00:40.296Z,95828.00
2024-03-09T13:03:07.408Z,95826.00
2024-03-09T13:05:34.597Z,95823.00
2024-03-09T13:08:08.559Z,95817.00
2024-03-09T13:10:38.131Z,95823.00
2024-03-09T13:13:06.536Z,95815.00
2024-03-09T13:15:36.523Z,95813.00
2024-03-09T13:18:06.707Z,95803.00
2024-03-09T13:20:33.732Z,95797.00
2024-03-09T13:23:04.656Z,95795.00
2024-03-09T13:25:34.647Z,95800.00
2024-03-09T13:28:08.148Z,95794.00
2024-03-09T13:30:42.961Z,95800.00
2024-03-09T13:33:10.449Z,95801.00
2024-03-09T13:35:38.485Z,95793.00
2024-03-09T13:38:08.045Z,95796.00
2024-03-09T13:40:35.191Z,95792.00
2024-03-09T13:43:05.170Z,95796.00
2024-03-09T13:45:33.136Z,95792.00
2024-03-09T13:48:07.281Z,95794.00
2024-03-09T13:50:35.895Z,95794.00
2024-03-09T13:53:05.482Z,95795.00
2024-03-09T13:55:35.026Z,95792.00
2024-03-09T13:58:03.098Z,95788.00
2024-03-09T14:00:30.766Z,95779.00
2024-03-09T14:03:00.702Z,95789.00
2024-03-09T14:05:28.114Z,95785.00
2024-03-09T14:08:00.138Z,95780.00
2024-03-09T14:10:39.902Z,95776.00
2024-03-09T14:13:10.394Z,95772.00
2024-03-09T14:15:38.729Z,95777.00
2024-03-09T14:18:12.723Z,95774.00
2024-03-09T14:20:40.386Z,95775.00
2024-03-09T14:23:07.910Z,95770.00
2024-03-09T14:25:35.147Z,95771.00
2024-03-09T14:28:07.092Z,95772.00
2024-03-09T14:30:41.144Z,95770.00
2024-03-09T14:33:13.406Z,95768.00
2024-03-09T14:35:41.710Z,95767.00
2024-03-09T14:38:10.788Z,95757.00
2024-03-09T14:40:37.763Z,95755.00
2024-03-09T14:43:09.737Z,95754.00
2024-03-09T14:45:38.079Z,95757.00
2024-03-09T14:48:09.962Z,95745.00
2024-03-09T14:50:37.561Z,95742.00
2024-03-09T14:53:12.166Z,95734.00
2024-03-09T14:55:39.074Z,95735.00
2024-03-09T14:58:08.817Z,95730.00
2024-03-09T15:00:44.683Z,95738.00
2024-03-09T15:03:29.311Z,95745.00
2024-03-09T15:06:01.474Z,95735.00
2024-03-09T15:08:28.528Z,95730.00
2024-03-09T15:11:02.518Z,95730.00
2024-03-09T15:13:39.311Z,95729.00
2024-03-09T15:16:09.281Z,95733.00
2024-03-09T15:18:37.265Z,95736.00
2024-03-09T15:21:04.849Z,95729.00
2024-03-09T15:23:32.838Z,95728.00
2024-03-09T15:26:00.173Z,95725.00
2024-03-09T15:28:27.007Z,95724.00
2024-03-09T15:30:54.417Z,95734.00
2024-03-09T15:33:24.806Z,95718.00
2024-03-09T15:35:55.419Z,95719.00
2024-03-09T15:38:26.826Z,95716.00
2024-03-09T15:40:56.056Z,95722.00
2024-03-09T15:43:27.199Z,95716.00
2024-03-09T15:45:57.498Z,95722.00
2024-03-09T15:48:24.582Z,95714.00
2024-03-09T15:50:53.411Z,95716.00
2024-03-09T15:53:20.507Z,95706.00
2024-03-09T15:55:51.037Z,95716.00
2024-03-09T15:58:18.297Z,95716.00
2024-03-09T16:00:45.572Z,95706.00
2024-03-09T16:03:12.576Z,95697.00
2024-03-09T16:05:40.275Z,95702.00
2024-03-09T16:08:11.188Z,95703.00
2024-03-09T16:10:43.158Z,95697.00
2024-03-09T16:13:13.644Z,95701.00
2024-03-09T16:15:48.773Z,95700.00
2024-03-09T16:18:16.826Z,95696.00
2024-03-09T16:20:44.150Z,95691.00
2024-03-09T16:23:17.867Z,95691.00
2024-03-09T16:25:50.382Z,95689.00
2024-03-09T16:28:18.280Z,95688.00
2024-03-09T16:30:46.506Z,95687.00
2024-03-09T16:33:15.149Z,95690.00
2024-03-09T16:35:50.846Z,95690.00
2024-03-09T16:38:22.996Z,95687.00
2024-03-09T16:40:56.130Z,95693.00
2024-03-09T16:43:31.504Z,95691.00
2024-03-09T16:46:05.646Z,95694.00
2024-03-09T16:48:33.908Z,95685.00
2024-03-09T16:51:02.182Z,95692.00
2024-03-09T16:53:34.041Z,95685.00
2024-03-09T16:56:05.073Z,95687.00
2024-03-09T16:58:32.654Z,95685.00
2024-03-09T17:01:05.227Z,95684.00
2024-03-09T17:03:33.058Z,95683.00
2024-03-09T17:06:00.582Z,95680.00
2024-03-09T17:08:27.547Z,95680.00
2024-03-09T17:10:55.766Z,95673.00
2024-03-09T17:13:25.387Z,95677.00
2024-03-09T17:15:52.307Z,95681.00
2024-03-09T17:18:22.976Z,95666.00
2024-03-09T17:20:53.817Z,95678.00
2024-03-09T17:23:22.592Z,95677.00
2024-03-09T17:25:50.703Z,95682.00
2024-03-09T17:28:21.127Z,95676.00
2024-03-09T17:30:49.916Z,95677.00
2024-03-09T17:33:17.635Z,95687.00
2024-03-09T17:35:44.676Z,95680.00
2024-03-09T17:38:11.993Z,95685.00
2024-03-09T17:40:39.327Z,95679.00
2024-03-09T17:43:06.282Z,95677.00
2024-03-09T17:45:33.524Z,95687.00
2024-03-09T17:48:00.687Z,95677.00
2024-03-09T17:50:28.672Z,95678.00
2024-03-09T17:52:56.537Z,95669.00
2024-03-09T17:55:24.104Z,95671.00
2024-03-09T17:57:58.350Z,95671.00
2024-03-09T18:00:28.418Z,95685.00
2024-03-09T18:03:00.458Z,95678.00
2024-03-09T18:05:32.570Z,95679.00
2024-03-09T18:08:05.338Z,95681.00
2024-03-09T18:10:33.014Z,95671.00
2024-03-09T18:12:59.938Z,95664.00
2024-03-09T18:15:30.841Z,95678.00
2024-03-09T18:17:57.866Z,95674.00
2024-03-09T18:20:25.468Z,95679.00
2024-03-09T18:22:54.147Z,95672.00
2024-03-09T18:25:25.610Z,95676.00
2024-03-09T18:27:53.960Z,95678.00
2024-03-09T18:30:22.636Z,95678.00
2024-03-09T18:32:51.717Z,95680.00
2024-03-09T18:35:23.075Z,95680.00
2024-03-09T18:38:00.625Z,95673.00
2024-03-09T18:40:29.388Z,95671.00
2024-03-09T18:42:57.976Z,95674.00
2024-03-09T18:45:25.287Z,95669.00
2024-03-09T18:47:56.734Z,95668.00
2024-03-09T18:50:23.844Z,95662.00
2024-03-09T18:52:53.905Z,95667.00
2024-03-09T18:55:21.675Z,95655.00
2024-03-09T18:57:48.806Z,95667.00
2024-03-09T19:00:17.485Z,95669.00
2024-03-09T19:02:51.085Z,95658.00
2024-03-09T19:05:23.929Z,95677.00
2024-03-09T19:07:56.569Z,95676.00
2024-03-09T19:10:24.673Z,95673.00
2024-03-09T19:12:52.415Z,95673.00
2024-03-09T19:15:20.644Z,95673.00
2024-03-09T19:17:50.487Z,95678.00
2024-03-09T19:20:22.246Z,95678.00
2024-03-09T19:22:50.733Z,95677.00
2024-03-09T19:25:17.612Z,95666.00
2024-03-09T19:27:47.387Z,95676.00
2024-03-09T19:30:17.379Z,95674.00
2024-03-09T19:32:49.439Z,95668.00
2024-03-09T19:35:17.882Z,95673.00
2024-03-09T19:37:46.748Z,95672.00
2024-03-09T19:40:15.911Z,95665.00
2024-03-09T19:42:47.061Z,95660.00
2024-03-09T19:45:18.781Z,95655.00
2024-03-09T19:47:50.250Z,95670.00
2024-03-09T19:50:18.175Z,95668.00
2024-03-09T19:52:48.696Z,95660.00
2024-03-09T19:55:17.563Z,95658.00
2024-03-09T19:57:48.183Z,95654.00
2024-03-09T20:00:29.645Z,95657.00
2024-03-09T20:02:57.725Z,95653.00
2024-03-09T20:05:34.432Z,95664.00
2024-03-09T20:08:03.046Z,95656.00
2024-03-09T20:10:31.982Z,95656.00
2024-03-09T20:13:01.261Z,95655.00
2024-03-09T20:15:28.877Z,95649.00
2024-03-09T20:17:57.474Z,95646.00
2024-03-09T20:20:27.915Z,95636.00
2024-03-09T20:22:55.661Z,95647.00
2024-03-09T20:25:24.464Z,95647.00
2024-03-09T20:27:52.017Z,95650.00
2024-03-09T20:30:21.099Z,95654.00
2024-03-09T20:32:49.365Z,95647.00
2024-03-09T20:35:18.460Z,95642.00
2024-03-09T20:37:48.187Z,95647.00
2024-03-09T20:40:16.943Z,95650.00
2024-03-09T20:42:50.790Z,95643.00
2024-03-09T20:45:21.618Z,95648.00
2024-03-09T20:47:49.692Z,95648.00
2024-03-09T20:50:19.868Z,95656.00
2024-03-09T20:52:54.388Z,95661.00
2024-03-09T20:55:22.112Z,95657.00
2024-03-09T20:57:49.722Z,95645.00
2024-03-09T21:00:23.988Z,95647.00
2024-03-09T21:02:51.884Z,95653.00
2024-03-09T21:05:19.886Z,95650.00
2024-03-09T21:07:47.323Z,95651.00
2024-03-09T21:10:14.826Z,95646.00
2024-03-09T21:12:47.624Z,95658.00
2024-03-09T21:15:14.999Z,95642.00
2024-03-09T21:17:42.428Z,95654.00
2024-03-09T21:20:15.317Z,95647.00
2024-03-09T21:22:42.849Z,95644.00
2024-03-09T21:25:13.698Z,95652.00
2024-03-09T21:27:43.909Z,95647.00
2024-03-09T21:30:15.652Z,95643.00
2024-03-09T21:32:47.053Z,95642.00
2024-03-09T21:35:14.816Z,95629.00
2024-03-09T21:37:45.313Z,95623.00
2024-03-09T21:40:14.663Z,95618.00
2024-03-09T21:42:45.292Z,95612.00
2024-03-09T21:45:12.558Z,95614.00
2024-03-09T21:47:40.273Z,95610.00
2024-03-09T21:50:08.367Z,95624.00
2024-03-09T21:52:35.382Z,95615.00
2024-03-09T21:55:02.210Z,95609.00
2024-03-09T21:57:29.064Z,95612.00
2024-03-09T21:59:56.342Z,95616.00
2024-03-09T22:02:25.030Z,95611.00
2024-03-09T22:04:51.925Z,95617.00
2024-03-09T22:07:18.751Z,95617.00
2024-03-09T22:09:45.543Z,95620.00
2024-03-09T22:12:12.619Z,95609.00
2024-03-09T22:14:39.772Z,95614.00
2024-03-09T22:17:07.026Z,95617.00
2024-03-09T22:19:34.124Z,95615.00
2024-03-09T22:22:00.977Z,95611.00
2024-03-09T22:24:28.210Z,95612.00
2024-03-09T22:26:55.622Z,95597.00
2024-03-09T22:29:23.667Z,95614.00
2024-03-09T22:31:50.598Z,95620.00
2024-03-09T22:34:17.515Z,95620.00
2024-03-09T22:36:44.417Z,95613.00
2024-03-09T22:39:12.994Z,95618.00
2024-03-09T22:41:39.889Z,95614.00
2024-03-09T22:44:07.580Z,95614.00
2024-03-09T22:46:35.679Z,95619.00
2024-03-09T22:49:05.877Z,95605.00
2024-03-09T22:51:33.891Z,95621.00
2024-03-09T22:54:02.549Z,95607.00
2024-03-09T22:56:29.411Z,95608.00
2024-03-09T22:58:56.364Z,95616.00
2024-03-09T23:01:26.338Z,95607.00
2024-03-09T23:03:54.216Z,95618.00
2024-03-09T23:06:21.451Z,95615.00
2024-03-09T23:08:48.944Z,95612.00
2024-03-09T23:11:18.900Z,95603.00
2024-03-09T23:13:47.743Z,95605.00
2024-03-09T23:16:15.419Z,95605.00
2024-03-09T23:18:43.459Z,95607.00
2024-03-09T23:21:10.828Z,95607.00
2024-03-09T23:23:37.815Z,95605.00
2024-03-09T23:26:04.849Z,95597.00
2024-03-09T23:28:31.806Z,95608.00
2024-03-09T23:31:00.116Z,95599.00
2024-03-09T23:33:27.181Z,95596.00
2024-03-09T23:35:54.055Z,95606.00
2024-03-09T23:38:23.517Z,95606.00
2024-03-09T23:40:51.136Z,95608.00
2024-03-09T23:43:21.297Z,95605.00
2024-03-09T23:45:48.339Z,95614.00
2024-03-09T23:48:15.204Z,95614.00
2024-03-09T23:50:44.977Z,95617.00
2024-03-09T23:53:13.826Z,95606.00
2024-03-09T23:55:42.329Z,95605.00
2024-03-09T23:58:09.282Z,95600.00
